createdAt,value
2023-03-17T00:01:54.556Z,7.61
2023-03-17T00:04:24.516Z,7.66
2023-03-17T00:06:53.268Z,7.64
2023-03-17T00:09:22.294Z,7.67
2023-03-17T00:11:50.320Z,7.67
2023-03-17T00:14:19.736Z,7.68
2023-03-17T00:16:52.817Z,7.74
2023-03-17T00:19:35.321Z,7.75
2023-03-17T00:22:06.185Z,7.68
2023-03-17T00:24:34.552Z,7.71
2023-03-17T00:27:02.715Z,7.72
2023-03-17T00:29:31.552Z,7.69
2023-03-17T00:31:59.934Z,7.73
2023-03-17T00:34:29.901Z,7.71
2023-03-17T00:36:57.423Z,7.72
2023-03-17T00:39:25.568Z,7.70
2023-03-17T00:41:55.250Z,7.66
2023-03-17T00:44:22.732Z,7.71
2023-03-17T00:46:54.266Z,7.70
2023-03-17T00:49:24.112Z,7.69
2023-03-17T00:51:52.791Z,7.68
2023-03-17T00:54:23.019Z,7.65
2023-03-17T00:56:52.738Z,7.63
2023-03-17T00:59:42.840Z,7.58
2023-03-17T01:02:13.264Z,7.53
2023-03-17T01:04:45.575Z,7.50
2023-03-17T01:07:15.945Z,7.50
2023-03-17T01:09:45.232Z,7.50
2023-03-17T01:12:14.218Z,7.44
2023-03-17T01:14:43.730Z,7.49
2023-03-17T01:17:18.404Z,7.52
2023-03-17T01:19:47.977Z,7.53
2023-03-17T01:22:15.692Z,7.54
2023-03-17T01:24:43.324Z,7.53
2023-03-17T01:27:11.603Z,7.58
2023-03-17T01:29:39.490Z,7.64
2023-03-17T01:32:07.340Z,7.58
2023-03-17T01:34:35.222Z,7.65
2023-03-17T01:37:02.869Z,7.63
2023-03-17T01:39:30.631Z,7.60
2023-03-17T01:42:18.830Z,7.59
2023-03-17T01:45:37.325Z,7.60
2023-03-17T01:48:05.031Z,7.59
2023-03-17T01:50:34.932Z,7.59
2023-03-17T01:53:03.510Z,7.65
2023-03-17T01:55:31.637Z,7.65
2023-03-17T01:57:59.855Z,7.71
2023-03-17T02:00:27.704Z,7.68
2023-03-17T02:02:57.189Z,7.70
2023-03-17T02:05:27.682Z,7.77
2023-03-17T02:07:56.260Z,7.81
2023-03-17T02:10:33.642Z,7.78
2023-03-17T02:13:05.581Z,7.79
2023-03-17T02:15:40.438Z,7.80
2023-03-17T02:18:09.807Z,7.80
2023-03-17T02:20:37.605Z,7.85
2023-03-17T02:23:07.558Z,7.88
2023-03-17T02:25:36.934Z,7.85
2023-03-17T02:28:10.969Z,7.89
2023-03-17T02:30:40.596Z,7.86
2023-03-17T02:33:12.406Z,7.92
2023-03-17T02:35:42.400Z,7.90
2023-03-17T02:38:10.908Z,7.92
2023-03-17T02:40:38.475Z,7.86
2023-03-17T02:43:07.324Z,7.90
2023-03-17T02:45:34.913Z,7.92
2023-03-17T02:48:07.299Z,7.91
2023-03-17T02:50:34.916Z,7.91
2023-03-17T02:53:02.411Z,7.91
2023-03-17T02:55:30.294Z,7.91
2023-03-17T02:57:58.280Z,7.92
2023-03-17T03:00:26.578Z,7.81
2023-03-17T03:02:54.870Z,7.79
2023-03-17T03:05:24.088Z,7.83
2023-03-17T03:07:53.456Z,7.87
2023-03-17T03:10:21.508Z,7.89
2023-03-17T03:12:53.352Z,7.91
2023-03-17T03:15:21.599Z,7.94
2023-03-17T03:17:50.604Z,7.97
2023-03-17T03:20:21.438Z,7.91
2023-03-17T03:22:49.268Z,7.91
2023-03-17T03:25:17.217Z,7.89
2023-03-17T03:27:46.791Z,7.91
2023-03-17T03:30:14.669Z,7.94
2023-03-17T03:32:44.066Z,7.97
2023-03-17T03:35:11.732Z,7.96
2023-03-17T03:37:39.585Z,7.87
2023-03-17T03:40:07.709Z,7.88
2023-03-17T03:42:35.552Z,7.90
2023-03-17T03:45:03.203Z,7.84
2023-03-17T03:47:31.203Z,7.90
2023-03-17T03:50:00.176Z,7.93
2023-03-17T03:52:27.829Z,7.91
2023-03-17T03:54:55.768Z,7.88
2023-03-17T03:57:23.210Z,7.82
2023-03-17T03:59:51.131Z,7.87
2023-03-17T04:02:18.720Z,7.84
2023-03-17T04:04:47.038Z,7.85
2023-03-17T04:07:14.817Z,7.82
2023-03-17T04:09:42.618Z,7.80
2023-03-17T04:12:10.540Z,7.80
2023-03-17T04:14:38.260Z,7.79
2023-03-17T04:17:06.260Z,7.82
2023-03-17T04:19:33.953Z,7.80
2023-03-17T04:22:05.410Z,7.73
2023-03-17T04:24:34.778Z,7.67
2023-03-17T04:27:04.878Z,7.57
2023-03-17T04:29:36.481Z,7.60
2023-03-17T04:32:04.863Z,7.54
2023-03-17T04:34:34.967Z,7.58
2023-03-17T04:37:02.591Z,7.55
2023-03-17T04:39:33.791Z,7.54
2023-03-17T04:42:01.562Z,7.56
2023-03-17T04:44:29.652Z,7.60
2023-03-17T04:46:59.452Z,7.58
2023-03-17T04:49:28.173Z,7.59
2023-03-17T04:51:55.856Z,7.48
2023-03-17T04:54:24.767Z,7.52
2023-03-17T04:56:52.660Z,7.46
2023-03-17T04:59:20.341Z,7.47
2023-03-17T05:01:48.035Z,7.48
2023-03-17T05:04:28.862Z,7.42
2023-03-17T05:06:58.610Z,7.46
2023-03-17T05:09:28.726Z,7.42
2023-03-17T05:11:58.940Z,7.39
2023-03-17T05:14:26.794Z,7.39
2023-03-17T05:16:54.405Z,7.44
2023-03-17T05:19:23.560Z,7.43
2023-03-17T05:21:51.641Z,7.42
2023-03-17T05:24:19.207Z,7.38
2023-03-17T05:26:47.207Z,7.37
2023-03-17T05:29:14.771Z,7.31
2023-03-17T05:31:44.984Z,7.36
2023-03-17T05:34:12.654Z,7.38
2023-03-17T05:36:40.271Z,7.36
2023-03-17T05:39:07.821Z,7.34
2023-03-17T05:41:36.315Z,7.39
2023-03-17T05:44:05.917Z,7.38
2023-03-17T05:46:37.927Z,7.34
2023-03-17T05:49:07.706Z,7.34
2023-03-17T05:51:37.057Z,7.37
2023-03-17T05:54:05.155Z,7.33
2023-03-17T05:56:34.989Z,7.35
2023-03-17T05:59:04.714Z,7.36
2023-03-17T06:01:32.483Z,7.39
2023-03-17T06:04:01.829Z,7.44
2023-03-17T06:06:29.640Z,7.44
2023-03-17T06:08:57.110Z,7.40
2023-03-17T06:11:24.591Z,7.52
2023-03-17T06:13:58.173Z,7.57
2023-03-17T06:16:25.875Z,7.58
2023-03-17T06:18:53.376Z,7.60
2023-03-17T06:21:21.402Z,7.51
2023-03-17T06:23:49.024Z,7.64
2023-03-17T06:26:16.843Z,7.59
2023-03-17T06:28:44.451Z,7.53
2023-03-17T06:31:12.112Z,7.61
2023-03-17T06:33:39.781Z,7.74
2023-03-17T06:36:08.263Z,7.74
2023-03-17T06:38:36.171Z,7.70
2023-03-17T06:41:04.889Z,7.67
2023-03-17T06:43:32.707Z,7.55
2023-03-17T06:46:04.476Z,7.51
2023-03-17T06:48:32.202Z,7.58
2023-03-17T06:51:00.852Z,7.54
2023-03-17T06:53:28.452Z,7.56
2023-03-17T06:55:56.445Z,7.59
2023-03-17T06:58:24.988Z,7.59
2023-03-17T07:00:54.219Z,7.68
2023-03-17T07:03:22.543Z,7.60
2023-03-17T07:05:50.141Z,7.67
2023-03-17T07:08:18.079Z,7.65
2023-03-17T07:10:45.993Z,7.60
2023-03-17T07:13:17.957Z,7.62
2023-03-17T07:15:45.744Z,7.59
2023-03-17T07:18:13.618Z,7.59
2023-03-17T07:20:41.617Z,7.59
2023-03-17T07:23:29.231Z,7.53
2023-03-17T07:25:59.935Z,7.53
2023-03-17T07:28:27.552Z,7.57
2023-03-17T07:30:57.893Z,7.56
2023-03-17T07:33:25.896Z,7.57
2023-03-17T07:35:56.558Z,7.65
2023-03-17T07:38:24.172Z,7.72
2023-03-17T07:40:53.166Z,7.70
2023-03-17T07:43:22.633Z,7.71
2023-03-17T07:45:50.199Z,7.78
2023-03-17T07:48:19.171Z,7.79
2023-03-17T07:50:47.962Z,7.73
2023-03-17T07:53:15.599Z,7.76
2023-03-17T07:55:44.715Z,7.68
2023-03-17T07:58:15.180Z,7.68
2023-03-17T08:00:48.700Z,7.75
2023-03-17T08:03:16.985Z,7.65
2023-03-17T08:05:45.630Z,7.66
2023-03-17T08:08:22.205Z,7.72
2023-03-17T08:10:50.887Z,7.77
2023-03-17T08:13:18.901Z,7.74
2023-03-17T08:15:47.214Z,7.87
2023-03-17T08:18:14.943Z,8.00
2023-03-17T08:20:42.539Z,7.98
2023-03-17T08:23:10.704Z,7.99
2023-03-17T08:25:39.582Z,7.97
2023-03-17T08:28:08.047Z,7.94
2023-03-17T08:30:38.617Z,7.95
2023-03-17T08:33:06.459Z,8.03
2023-03-17T08:35:37.402Z,8.10
2023-03-17T08:38:05.146Z,8.22
2023-03-17T08:40:32.728Z,8.41
2023-03-17T08:43:00.534Z,8.40
2023-03-17T08:45:29.007Z,8.37
2023-03-17T08:47:58.524Z,8.41
2023-03-17T08:50:27.087Z,8.46
2023-03-17T08:52:55.169Z,8.40
2023-03-17T08:55:22.898Z,8.46
2023-03-17T08:57:50.528Z,8.49
2023-03-17T09:00:23.352Z,8.48
2023-03-17T09:02:51.246Z,8.41
2023-03-17T09:05:19.610Z,8.47
2023-03-17T09:07:50.106Z,8.53
2023-03-17T09:10:22.658Z,8.39
2023-03-17T09:12:51.838Z,8.44
2023-03-17T09:15:22.418Z,8.34
2023-03-17T09:17:50.115Z,8.37
2023-03-17T09:20:17.768Z,8.45
2023-03-17T09:22:47.800Z,8.39
2023-03-17T09:25:16.727Z,8.39
2023-03-17T09:27:48.249Z,8.48
2023-03-17T09:30:19.452Z,8.34
2023-03-17T09:32:47.137Z,8.33
2023-03-17T09:35:15.297Z,8.28
2023-03-17T09:37:42.795Z,8.27
2023-03-17T09:40:17.231Z,8.31
2023-03-17T09:42:56.743Z,8.33
2023-03-17T09:45:33.648Z,8.40
2023-03-17T09:48:39.088Z,8.45
2023-03-17T09:51:13.170Z,8.48
2023-03-17T09:53:49.481Z,8.48
2023-03-17T09:56:20.042Z,8.40
2023-03-17T09:58:52.948Z,8.25
2023-03-17T10:01:22.887Z,8.27
2023-03-17T10:03:51.694Z,8.24
2023-03-17T10:06:42.765Z,8.21
2023-03-17T10:09:33.811Z,8.39
2023-03-17T10:12:15.359Z,8.51
2023-03-17T10:15:00.716Z,8.53
2023-03-17T10:17:34.503Z,8.69
2023-03-17T10:20:11.978Z,8.60
2023-03-17T10:22:54.821Z,8.47
2023-03-17T10:25:26.399Z,8.45
2023-03-17T10:28:01.996Z,8.41
2023-03-17T10:30:33.822Z,8.40
2023-03-17T10:33:05.002Z,8.52
2023-03-17T10:35:36.469Z,8.53
2023-03-17T10:38:23.379Z,8.60
2023-03-17T10:41:03.568Z,8.54
2023-03-17T10:43:46.026Z,8.56
2023-03-17T10:46:25.233Z,8.55
2023-03-17T10:49:02.245Z,8.53
2023-03-17T10:51:37.405Z,8.58
2023-03-17T10:54:19.974Z,8.59
2023-03-17T10:56:50.392Z,8.58
2023-03-17T11:02:07.728Z,8.59
2023-03-17T11:04:39.967Z,8.49
2023-03-17T11:07:40.916Z,8.44
2023-03-17T11:10:26.871Z,8.40
2023-03-17T11:13:00.436Z,8.43
2023-03-17T11:15:38.014Z,8.34
2023-03-17T11:18:33.285Z,8.41
2023-03-17T11:21:10.330Z,8.50
2023-03-17T11:23:47.204Z,8.54
2023-03-17T11:26:39.342Z,8.56
2023-03-17T11:29:32.654Z,8.65
2023-03-17T11:32:39.008Z,8.51
2023-03-17T11:35:15.400Z,8.51
2023-03-17T11:38:12.435Z,8.46
2023-03-17T11:41:24.441Z,8.56
2023-03-17T11:44:21.316Z,8.50
2023-03-17T11:47:15.124Z,8.46
2023-03-17T11:49:46.056Z,8.52
2023-03-17T11:52:14.746Z,8.56
2023-03-17T11:54:59.679Z,8.56
2023-03-17T11:57:27.580Z,8.54
2023-03-17T12:00:07.784Z,8.62
2023-03-17T12:02:47.702Z,8.59
2023-03-17T12:05:30.120Z,8.44
2023-03-17T12:08:25.073Z,8.30
2023-03-17T12:10:56.655Z,8.35
2023-03-17T12:13:43.016Z,8.28
2023-03-17T12:16:32.114Z,8.27
2023-03-17T12:19:37.807Z,8.31
2023-03-17T12:22:36.589Z,8.40
2023-03-17T12:25:20.880Z,8.43
2023-03-17T12:28:00.819Z,8.39
2023-03-17T12:30:37.319Z,8.33
2023-03-17T12:33:17.121Z,8.33
2023-03-17T12:35:45.589Z,8.44
2023-03-17T12:38:40.920Z,8.36
2023-03-17T12:41:31.567Z,8.32
2023-03-17T12:44:03.171Z,8.31
2023-03-17T12:46:50.254Z,8.22
2023-03-17T12:49:37.371Z,8.15
2023-03-17T12:52:43.948Z,8.03
2023-03-17T12:55:17.283Z,7.99
2023-03-17T12:57:48.453Z,7.81
2023-03-17T13:00:25.506Z,7.83
2023-03-17T13:03:22.313Z,7.85
2023-03-17T13:05:55.225Z,7.85
2023-03-17T13:08:33.747Z,7.85
2023-03-17T13:11:29.688Z,7.77
2023-03-17T13:14:13.280Z,7.78
2023-03-17T13:16:46.922Z,7.67
2023-03-17T13:19:20.337Z,7.70
2023-03-17T13:21:51.076Z,7.74
2023-03-17T13:24:22.674Z,7.67
2023-03-17T13:26:55.061Z,7.69
2023-03-17T13:29:32.791Z,7.65
2023-03-17T13:32:21.900Z,7.65
2023-03-17T13:34:55.729Z,7.59
2023-03-17T13:37:31.265Z,7.65
2023-03-17T13:40:35.367Z,7.62
2023-03-17T13:43:21.378Z,7.54
2023-03-17T13:45:49.781Z,7.52
2023-03-17T13:48:33.726Z,7.52
2023-03-17T13:51:18.720Z,7.40
2023-03-17T13:53:56.997Z,7.36
2023-03-17T13:56:47.984Z,7.38
2023-03-17T13:59:33.089Z,7.30
2023-03-17T14:02:12.385Z,7.27
2023-03-17T14:04:52.712Z,7.28
2023-03-17T14:07:24.680Z,7.24
2023-03-17T14:09:59.029Z,7.26
2023-03-17T14:12:46.882Z,7.16
2023-03-17T14:15:28.201Z,7.20
2023-03-17T14:18:03.198Z,7.18
2023-03-17T14:20:31.221Z,7.27
2023-03-17T14:23:01.820Z,7.21
2023-03-17T14:25:38.564Z,7.13
2023-03-17T14:28:11.192Z,7.03
2023-03-17T14:30:39.414Z,7.02
2023-03-17T14:33:26.630Z,7.00
2023-03-17T14:36:00.837Z,7.04
2023-03-17T14:38:37.362Z,7.00
2023-03-17T14:41:06.088Z,6.95
2023-03-17T14:43:35.481Z,6.91
2023-03-17T14:46:05.827Z,6.87
2023-03-17T14:48:36.966Z,6.91
2023-03-17T14:51:24.749Z,6.84
2023-03-17T14:53:54.326Z,6.77
2023-03-17T14:56:42.564Z,6.86
2023-03-17T14:59:25.449Z,6.81
2023-03-17T15:01:58.258Z,6.78
2023-03-17T15:04:29.828Z,6.77
2023-03-17T15:07:02.832Z,6.70
2023-03-17T15:09:33.807Z,6.73
2023-03-17T15:12:17.992Z,6.79
2023-03-17T15:14:47.070Z,6.80
2023-03-17T15:17:19.147Z,6.81
2023-03-17T15:20:00.106Z,6.75
2023-03-17T15:22:42.071Z,6.83
2023-03-17T15:25:31.504Z,6.87
2023-03-17T15:27:59.271Z,6.79
2023-03-17T15:30:37.457Z,6.78
2023-03-17T15:33:30.611Z,6.76
2023-03-17T15:36:00.342Z,6.73
2023-03-17T15:38:29.710Z,6.63
2023-03-17T15:40:58.062Z,6.62
2023-03-17T15:43:27.595Z,6.68
2023-03-17T15:45:59.932Z,6.70
2023-03-17T15:48:31.978Z,6.58
2023-03-17T15:51:01.528Z,6.71
2023-03-17T15:53:32.228Z,6.67
2023-03-17T15:56:00.468Z,6.71
2023-03-17T15:58:28.465Z,6.65
2023-03-17T16:01:00.010Z,6.70
2023-03-17T16:03:37.146Z,6.69
2023-03-17T16:06:13.795Z,6.58
2023-03-17T16:08:42.355Z,6.60
2023-03-17T16:11:28.373Z,6.66
2023-03-17T16:14:02.236Z,6.67
2023-03-17T16:16:36.550Z,6.64
2023-03-17T16:19:05.918Z,6.72
2023-03-17T16:21:36.244Z,6.74
2023-03-17T16:24:03.861Z,6.80
2023-03-17T16:26:31.689Z,6.78
2023-03-17T16:29:01.998Z,6.68
2023-03-17T16:31:30.754Z,6.66
2023-03-17T16:33:58.349Z,6.67
2023-03-17T16:36:26.316Z,6.72
2023-03-17T16:38:54.039Z,6.69
2023-03-17T16:41:24.310Z,6.68
2023-03-17T16:44:01.307Z,6.58
2023-03-17T16:46:35.154Z,6.61
2023-03-17T16:49:07.206Z,6.61
2023-03-17T16:51:34.749Z,6.52
2023-03-17T16:54:03.223Z,6.51
2023-03-17T16:56:31.683Z,6.52
2023-03-17T16:58:59.881Z,6.45
2023-03-17T17:01:29.243Z,6.47
2023-03-17T17:03:57.254Z,6.55
2023-03-17T17:06:26.959Z,6.51
2023-03-17T17:08:54.521Z,6.52
2023-03-17T17:11:22.131Z,6.58
2023-03-17T17:13:51.817Z,6.63
2023-03-17T17:16:19.479Z,6.56
2023-03-17T17:18:47.447Z,6.62
2023-03-17T17:21:15.220Z,6.70
2023-03-17T17:23:42.957Z,6.76
2023-03-17T17:26:12.877Z,6.75
2023-03-17T17:28:40.496Z,6.75
2023-03-17T17:31:08.955Z,6.75
2023-03-17T17:33:37.336Z,6.73
2023-03-17T17:36:07.612Z,6.63
2023-03-17T17:38:35.150Z,6.56
2023-03-17T17:41:05.610Z,6.49
2023-03-17T17:43:33.849Z,6.48
2023-03-17T17:46:02.597Z,6.51
2023-03-17T17:48:32.155Z,6.51
2023-03-17T17:50:59.725Z,6.48
2023-03-17T17:53:28.103Z,6.47
2023-03-17T17:55:56.263Z,6.51
2023-03-17T17:58:26.602Z,6.56
2023-03-17T18:00:57.246Z,6.47
2023-03-17T18:03:26.694Z,6.56
2023-03-17T18:05:56.476Z,6.57
2023-03-17T18:08:25.684Z,6.58
2023-03-17T18:10:59.991Z,6.53
2023-03-17T18:13:28.439Z,6.51
2023-03-17T18:15:56.408Z,6.49
2023-03-17T18:18:25.402Z,6.45
2023-03-17T18:20:54.339Z,6.46
2023-03-17T18:23:23.127Z,6.49
2023-03-17T18:25:52.082Z,6.52
2023-03-17T18:28:19.882Z,6.54
2023-03-17T18:30:47.845Z,6.46
2023-03-17T18:33:19.757Z,6.43
2023-03-17T18:35:49.727Z,6.46
2023-03-17T18:38:18.002Z,6.44
2023-03-17T18:40:45.860Z,6.42
2023-03-17T18:43:13.794Z,6.46
2023-03-17T18:45:42.637Z,6.41
2023-03-17T18:48:10.364Z,6.39
2023-03-17T18:50:38.790Z,6.48
2023-03-17T18:53:07.309Z,6.43
2023-03-17T18:55:41.237Z,6.50
2023-03-17T18:58:08.759Z,6.46
2023-03-17T19:00:36.495Z,6.49
2023-03-17T19:03:04.194Z,6.47
2023-03-17T19:05:37.584Z,6.45
2023-03-17T19:08:07.696Z,6.45
2023-03-17T19:10:37.074Z,6.36
2023-03-17T19:13:05.209Z,6.32
2023-03-17T19:15:36.792Z,6.32
2023-03-17T19:18:05.665Z,6.32
2023-03-17T19:20:34.568Z,6.25
2023-03-17T19:23:04.528Z,6.23
2023-03-17T19:25:32.533Z,6.23
2023-03-17T19:28:00.188Z,6.24
2023-03-17T19:30:29.423Z,6.25
2023-03-17T19:32:57.653Z,6.22
2023-03-17T19:35:25.936Z,6.23
2023-03-17T19:37:53.444Z,6.23
2023-03-17T19:40:22.426Z,6.25
2023-03-17T19:42:51.498Z,6.22
2023-03-17T19:45:19.510Z,6.16
2023-03-17T19:47:50.405Z,6.22
2023-03-17T19:50:17.928Z,6.13
2023-03-17T19:52:46.292Z,6.24
2023-03-17T19:55:13.848Z,6.13
2023-03-17T19:57:42.038Z,6.17
2023-03-17T20:00:11.097Z,6.08
2023-03-17T20:02:39.733Z,6.18
2023-03-17T20:05:08.542Z,6.12
2023-03-17T20:07:37.309Z,6.11
2023-03-17T20:10:07.111Z,6.04
2023-03-17T20:12:39.593Z,5.96
2023-03-17T20:15:09.118Z,5.91
2023-03-17T20:17:36.910Z,5.91
2023-03-17T20:20:12.314Z,5.98
2023-03-17T20:22:43.803Z,5.91
2023-03-17T20:25:12.415Z,5.89
2023-03-17T20:27:42.539Z,5.88
2023-03-17T20:30:12.411Z,5.92
2023-03-17T20:32:40.115Z,5.95
2023-03-17T20:35:08.773Z,5.93
2023-03-17T20:37:37.346Z,5.94
2023-03-17T20:40:13.850Z,5.98
2023-03-17T20:42:42.970Z,5.96
2023-03-17T20:45:10.563Z,6.00
2023-03-17T20:47:38.142Z,5.93
2023-03-17T20:50:08.670Z,5.76
2023-03-17T20:52:37.293Z,5.69
2023-03-17T20:55:06.220Z,5.74
2023-03-17T20:57:36.448Z,5.73
2023-03-17T21:00:04.872Z,5.64
2023-03-17T21:02:33.767Z,5.68
2023-03-17T21:05:01.845Z,5.63
2023-03-17T21:07:30.511Z,5.65
2023-03-17T21:09:59.615Z,5.60
2023-03-17T21:12:32.906Z,5.54
2023-03-17T21:15:00.849Z,5.48
2023-03-17T21:17:28.782Z,5.49
2023-03-17T21:19:57.057Z,5.57
2023-03-17T21:22:24.772Z,5.61
2023-03-17T21:24:53.216Z,5.64
2023-03-17T21:27:21.528Z,5.74
2023-03-17T21:29:49.318Z,5.71
2023-03-17T21:32:16.870Z,5.60
2023-03-17T21:34:45.130Z,5.58
2023-03-17T21:37:13.013Z,5.61
2023-03-17T21:39:41.208Z,5.65
2023-03-17T21:42:09.781Z,5.60
2023-03-17T21:44:38.479Z,5.64
2023-03-17T21:47:06.109Z,5.59
2023-03-17T21:49:33.670Z,5.56
2023-03-17T21:52:01.853Z,5.60
2023-03-17T21:54:30.506Z,5.59
2023-03-17T21:57:05.626Z,5.52
2023-03-17T21:59:35.777Z,5.57
2023-03-17T22:02:03.712Z,5.58
2023-03-17T22:04:32.490Z,5.62
2023-03-17T22:07:00.126Z,5.67
2023-03-17T22:09:29.338Z,5.68
2023-03-17T22:11:57.655Z,5.71
2023-03-17T22:14:25.672Z,5.75
2023-03-17T22:16:53.445Z,5.76
2023-03-17T22:19:21.557Z,5.81
2023-03-17T22:21:49.863Z,5.66
2023-03-17T22:24:18.183Z,5.47
2023-03-17T22:26:46.630Z,5.46
2023-03-17T22:29:15.148Z,5.30
2023-03-17T22:31:42.872Z,5.33
2023-03-17T22:34:10.393Z,5.24
2023-03-17T22:36:39.096Z,5.17
2023-03-17T22:39:10.564Z,5.07
2023-03-17T22:41:39.204Z,5.05
2023-03-17T22:44:09.155Z,5.01
2023-03-17T22:46:38.581Z,4.94
2023-03-17T22:49:07.967Z,5.00
2023-03-17T22:51:36.636Z,5.00
2023-03-17T22:54:12.317Z,5.10
2023-03-17T22:56:41.089Z,5.13
2023-03-17T22:59:08.868Z,5.05
2023-03-17T23:01:36.795Z,5.14
2023-03-17T23:04:04.343Z,5.12
2023-03-17T23:06:32.708Z,5.16
2023-03-17T23:09:00.268Z,5.15
2023-03-17T23:11:28.157Z,5.19
2023-03-17T23:14:00.825Z,5.18
2023-03-17T23:16:28.657Z,5.17
2023-03-17T23:18:58.274Z,5.18
2023-03-17T23:21:36.809Z,5.18
2023-03-17T23:24:07.742Z,5.23
2023-03-17T23:26:37.141Z,5.27
2023-03-17T23:29:07.018Z,5.31
2023-03-17T23:31:38.405Z,5.26
2023-03-17T23:34:07.500Z,5.27
2023-03-17T23:36:40.056Z,5.25
2023-03-17T23:39:08.661Z,5.22
2023-03-17T23:41:37.790Z,5.22
2023-03-17T23:44:06.620Z,5.21
2023-03-17T23:46:34.537Z,5.30
2023-03-17T23:49:02.854Z,5.28
2023-03-17T23:51:30.452Z,5.27
2023-03-17T23:53:59.169Z,5.31
2023-03-17T23:56:29.197Z,5.29
2023-03-17T23:58:56.965Z,5.28
